createdAt,value
2023-03-12T00:02:22.654Z,4.95
2023-03-12T00:04:49.582Z,5.32
2023-03-12T00:07:16.422Z,5.32
2023-03-12T00:09:43.248Z,5.20
2023-03-12T00:12:10.526Z,4.40
2023-03-12T00:14:37.386Z,4.45
2023-03-12T00:17:04.258Z,4.38
2023-03-12T00:19:31.039Z,4.82
2023-03-12T00:21:57.896Z,5.00
2023-03-12T00:24:24.702Z,4.50
2023-03-12T00:26:51.564Z,4.47
2023-03-12T00:29:18.455Z,5.10
2023-03-12T00:31:45.353Z,4.68
2023-03-12T00:34:12.317Z,4.30
2023-03-12T00:36:41.341Z,4.40
2023-03-12T00:39:08.345Z,5.13
2023-03-12T00:41:35.151Z,4.70
2023-03-12T00:44:02.102Z,4.03
2023-03-12T00:46:28.885Z,4.55
2023-03-12T00:48:55.894Z,4.40
2023-03-12T00:51:22.906Z,4.53
2023-03-12T00:53:49.929Z,3.95
2023-03-12T00:56:16.825Z,3.92
2023-03-12T00:58:43.784Z,4.20
2023-03-12T01:01:11.033Z,3.97
2023-03-12T01:03:38.254Z,4.55
2023-03-12T01:06:05.498Z,4.32
2023-03-12T01:08:33.053Z,4.50
2023-03-12T01:10:59.889Z,4.15
2023-03-12T01:13:26.764Z,4.38
2023-03-12T01:15:53.629Z,4.00
2023-03-12T01:18:20.520Z,4.55
2023-03-12T01:20:47.740Z,4.43
2023-03-12T01:23:14.851Z,4.00
2023-03-12T01:25:41.774Z,4.30
2023-03-12T01:28:08.847Z,4.80
2023-03-12T01:30:35.843Z,4.47
2023-03-12T01:33:02.893Z,4.53
2023-03-12T01:35:29.925Z,4.57
2023-03-12T01:37:56.829Z,4.50
2023-03-12T01:40:28.974Z,4.80
2023-03-12T01:42:58.405Z,4.30
2023-03-12T01:45:44.339Z,3.72
2023-03-12T01:48:11.290Z,4.00
2023-03-12T01:50:38.578Z,4.30
2023-03-12T01:53:05.394Z,3.85
2023-03-12T01:55:32.666Z,4.18
2023-03-12T01:58:01.563Z,4.43
2023-03-12T02:00:28.806Z,4.20
2023-03-12T02:02:59.922Z,4.18
2023-03-12T02:05:43.605Z,3.42
2023-03-12T02:08:14.809Z,4.03
2023-03-12T02:10:41.678Z,3.90
2023-03-12T02:13:09.552Z,4.20
2023-03-12T02:15:37.112Z,4.10
2023-03-12T02:18:04.554Z,3.83
2023-03-12T02:20:52.940Z,3.70
2023-03-12T02:23:55.240Z,3.60
2023-03-12T02:26:22.481Z,4.25
2023-03-12T02:28:50.583Z,3.63
2023-03-12T02:31:24.021Z,4.25
2023-03-12T02:33:52.212Z,4.30
2023-03-12T02:36:19.883Z,4.25
2023-03-12T02:38:47.884Z,3.33
2023-03-12T02:41:30.108Z,3.25
2023-03-12T02:44:02.684Z,3.47
2023-03-12T02:46:33.528Z,3.78
2023-03-12T02:49:01.027Z,3.50
2023-03-12T02:51:27.783Z,3.53
2023-03-12T02:53:55.208Z,3.55
2023-03-12T02:56:23.575Z,3.80
2023-03-12T02:58:50.618Z,3.72
2023-03-12T03:01:18.345Z,3.63
2023-03-12T03:03:45.528Z,3.47
2023-03-12T03:06:12.800Z,3.78
2023-03-12T03:08:39.860Z,4.00
2023-03-12T03:11:07.207Z,3.75
2023-03-12T03:13:34.642Z,3.35
2023-03-12T03:16:02.220Z,3.97
2023-03-12T03:18:29.776Z,3.85
2023-03-12T03:20:57.479Z,3.53
2023-03-12T03:23:24.479Z,3.35
2023-03-12T03:25:52.836Z,3.72
2023-03-12T03:28:20.453Z,3.70
2023-03-12T03:30:47.313Z,4.28
2023-03-12T03:33:14.380Z,3.90
2023-03-12T03:35:41.441Z,4.05
2023-03-12T03:38:08.548Z,3.80
2023-03-12T03:40:35.513Z,3.65
2023-03-12T03:43:03.354Z,4.10
2023-03-12T03:45:30.180Z,3.80
2023-03-12T03:47:57.307Z,3.80
2023-03-12T03:50:24.393Z,4.10
2023-03-12T03:52:51.582Z,4.65
2023-03-12T03:55:18.748Z,4.10
2023-03-12T03:57:45.703Z,4.32
2023-03-12T04:00:13.210Z,4.10
2023-03-12T04:02:44.958Z,4.28
2023-03-12T04:05:13.385Z,4.05
2023-03-12T04:07:40.543Z,4.03
2023-03-12T04:10:07.796Z,3.97
2023-03-12T04:12:34.763Z,4.57
2023-03-12T04:15:01.762Z,4.10
2023-03-12T04:17:28.629Z,4.05
2023-03-12T04:19:56.770Z,4.43
2023-03-12T04:22:24.274Z,3.97
2023-03-12T04:24:51.078Z,4.10
2023-03-12T04:27:17.939Z,4.07
2023-03-12T04:29:45.449Z,3.67
2023-03-12T04:32:12.412Z,5.20
2023-03-12T04:34:39.466Z,4.00
2023-03-12T04:37:06.741Z,4.00
2023-03-12T04:39:33.749Z,4.30
2023-03-12T04:42:00.644Z,4.30
2023-03-12T04:44:27.448Z,3.83
2023-03-12T04:46:54.641Z,4.45
2023-03-12T04:49:24.507Z,4.50
2023-03-12T04:51:51.412Z,4.70
2023-03-12T04:54:21.122Z,4.90
2023-03-12T04:56:49.114Z,5.47
2023-03-12T04:59:15.977Z,4.78
2023-03-12T05:01:44.549Z,5.20
2023-03-12T05:04:17.903Z,5.00
2023-03-12T05:06:45.027Z,5.07
2023-03-12T05:09:11.870Z,5.03
2023-03-12T05:11:39.910Z,5.43
2023-03-12T05:14:08.928Z,5.63
2023-03-12T05:16:36.211Z,5.28
2023-03-12T05:19:04.450Z,6.25
2023-03-12T05:21:31.515Z,5.70
2023-03-12T05:23:58.767Z,5.70
2023-03-12T05:26:29.408Z,5.80
2023-03-12T05:29:03.888Z,5.30
2023-03-12T05:31:33.276Z,5.53
2023-03-12T05:34:00.751Z,5.40
2023-03-12T05:36:27.739Z,6.18
2023-03-12T05:38:54.607Z,5.25
2023-03-12T05:41:23.936Z,5.90
2023-03-12T05:43:53.630Z,5.55
2023-03-12T05:46:20.946Z,5.75
2023-03-12T05:48:47.833Z,6.18
2023-03-12T05:51:15.761Z,6.40
2023-03-12T05:53:42.842Z,6.28
2023-03-12T05:56:12.656Z,6.28
2023-03-12T05:58:39.838Z,6.18
2023-03-12T06:01:14.232Z,5.65
2023-03-12T06:03:43.039Z,6.82
2023-03-12T06:06:10.728Z,6.47
2023-03-12T06:08:37.753Z,6.22
2023-03-12T06:11:04.727Z,5.88
2023-03-12T06:13:32.220Z,6.22
2023-03-12T06:16:04.444Z,6.60
2023-03-12T06:18:35.066Z,5.70
2023-03-12T06:21:09.970Z,6.70
2023-03-12T06:23:36.945Z,7.13
2023-03-12T06:26:04.967Z,6.28
2023-03-12T06:28:32.220Z,7.53
2023-03-12T06:30:59.055Z,7.63
2023-03-12T06:33:25.850Z,7.30
2023-03-12T06:35:56.788Z,8.02
2023-03-12T06:38:24.006Z,7.85
2023-03-12T06:41:14.172Z,6.60
2023-03-12T06:43:41.252Z,8.00
2023-03-12T06:46:09.346Z,6.65
2023-03-12T06:48:36.935Z,9.18
2023-03-12T06:51:04.494Z,8.25
2023-03-12T06:53:31.843Z,8.75
2023-03-12T06:55:58.998Z,8.30
2023-03-12T06:58:25.729Z,8.95
2023-03-12T07:00:55.055Z,8.18
2023-03-12T07:03:22.329Z,8.75
2023-03-12T07:05:49.968Z,8.40
2023-03-12T07:08:17.446Z,9.75
2023-03-12T07:10:44.898Z,9.52
2023-03-12T07:13:12.819Z,8.98
2023-03-12T07:15:39.836Z,9.82
2023-03-12T07:18:07.968Z,8.70
2023-03-12T07:20:38.718Z,8.85
2023-03-12T07:23:06.002Z,8.60
2023-03-12T07:25:35.572Z,9.32
2023-03-12T07:28:02.458Z,7.93
2023-03-12T07:30:33.355Z,8.50
2023-03-12T07:33:03.841Z,8.63
2023-03-12T07:35:31.379Z,7.75
2023-03-12T07:37:58.717Z,8.73
2023-03-12T07:40:26.233Z,9.80
2023-03-12T07:42:53.112Z,8.27
2023-03-12T07:45:20.537Z,8.45
2023-03-12T07:47:47.704Z,8.73
2023-03-12T07:50:14.893Z,8.50
2023-03-12T07:52:41.910Z,9.32
2023-03-12T07:55:09.201Z,9.45
2023-03-12T07:57:36.170Z,10.00
2023-03-12T08:00:05.479Z,9.27
2023-03-12T08:02:39.094Z,10.45
2023-03-12T08:05:06.286Z,9.80
2023-03-12T08:07:35.207Z,9.93
2023-03-12T08:10:02.879Z,9.95
2023-03-12T08:12:30.189Z,10.18
2023-03-12T08:14:57.176Z,10.32
2023-03-12T08:17:23.987Z,10.93
2023-03-12T08:19:51.214Z,10.30
2023-03-12T08:22:17.953Z,11.77
2023-03-12T08:24:44.999Z,12.02
2023-03-12T08:27:14.705Z,10.48
2023-03-12T08:29:41.862Z,11.65
2023-03-12T08:32:10.923Z,11.10
2023-03-12T08:34:37.877Z,12.95
2023-03-12T08:37:04.677Z,13.77
2023-03-12T08:39:31.672Z,13.50
2023-03-12T08:41:58.750Z,14.80
2023-03-12T08:44:26.076Z,15.18
2023-03-12T08:46:53.128Z,15.90
2023-03-12T08:49:20.986Z,16.58
2023-03-12T08:51:48.047Z,16.98
2023-03-12T08:54:15.112Z,17.30
2023-03-12T08:56:43.568Z,18.02
2023-03-12T08:59:10.968Z,17.95
2023-03-12T09:01:37.981Z,19.55
2023-03-12T09:04:05.650Z,19.45
2023-03-12T09:06:34.224Z,20.77
2023-03-12T09:09:05.012Z,19.83
2023-03-12T09:11:33.928Z,20.40
2023-03-12T09:14:42.682Z,20.05
2023-03-12T09:16:48.320Z,21.35
2023-03-12T09:19:15.279Z,23.08
2023-03-12T09:21:42.112Z,22.85
2023-03-12T09:24:10.612Z,23.95
2023-03-12T09:26:37.597Z,23.73
2023-03-12T09:29:04.584Z,23.35
2023-03-12T09:31:31.404Z,23.98
2023-03-12T09:33:58.413Z,23.92
2023-03-12T09:36:27.169Z,24.85
2023-03-12T09:38:54.381Z,21.48
2023-03-12T09:41:23.277Z,22.98
2023-03-12T09:44:03.762Z,21.77
2023-03-12T09:46:37.047Z,19.77
2023-03-12T09:49:06.290Z,17.48
2023-03-12T09:51:33.053Z,17.92
2023-03-12T09:54:03.151Z,17.25
2023-03-12T09:56:30.062Z,15.00
2023-03-12T09:58:56.865Z,15.88
2023-03-12T10:01:39.473Z,13.23
2023-03-12T10:04:09.897Z,13.07
2023-03-12T10:06:39.752Z,14.43
2023-03-12T10:09:25.145Z,13.18
2023-03-12T10:12:19.816Z,12.02
2023-03-12T10:15:06.081Z,11.15
2023-03-12T10:17:43.617Z,10.60
2023-03-12T10:20:16.810Z,10.50
2023-03-12T10:22:55.798Z,9.05
2023-03-12T10:25:27.478Z,8.02
2023-03-12T10:27:59.108Z,8.82
2023-03-12T10:30:26.865Z,7.43
2023-03-12T10:32:56.572Z,6.93
2023-03-12T10:35:24.663Z,6.82
2023-03-12T10:37:54.136Z,7.00
2023-03-12T10:40:24.883Z,7.07
2023-03-12T10:42:52.389Z,7.63
2023-03-12T10:45:21.987Z,7.45
2023-03-12T10:47:52.275Z,6.93
2023-03-12T10:50:27.069Z,6.82
2023-03-12T10:53:12.959Z,7.80
2023-03-12T10:55:39.914Z,7.43
2023-03-12T10:58:06.748Z,7.93
2023-03-12T11:00:33.874Z,6.25
2023-03-12T11:03:03.657Z,8.45
2023-03-12T11:05:30.817Z,7.95
2023-03-12T11:08:00.569Z,6.90
2023-03-12T11:10:38.955Z,6.25
2023-03-12T11:13:21.923Z,6.88
2023-03-12T11:15:49.633Z,7.60
2023-03-12T11:18:33.070Z,7.22
2023-03-12T11:21:12.914Z,6.63
2023-03-12T11:23:43.285Z,6.13
2023-03-12T11:26:10.415Z,7.13
2023-03-12T11:28:45.495Z,6.68
2023-03-12T11:31:21.352Z,6.30
2023-03-12T11:33:48.134Z,6.30
2023-03-12T11:36:37.946Z,7.15
2023-03-12T11:39:04.758Z,6.25
2023-03-12T11:41:50.017Z,7.35
2023-03-12T11:44:25.963Z,6.40
2023-03-12T11:46:52.798Z,7.07
2023-03-12T11:49:38.433Z,6.25
2023-03-12T11:52:14.385Z,7.28
2023-03-12T11:54:47.241Z,5.43
2023-03-12T11:57:17.187Z,5.90
2023-03-12T11:59:49.978Z,5.28
2023-03-12T12:02:23.991Z,6.82
2023-03-12T12:04:50.940Z,5.60
2023-03-12T12:07:32.700Z,6.45
2023-03-12T12:09:59.567Z,6.05
2023-03-12T12:12:39.595Z,6.20
2023-03-12T12:15:15.800Z,6.45
2023-03-12T12:17:56.694Z,6.55
2023-03-12T12:20:29.657Z,6.65
2023-03-12T12:23:08.651Z,6.28
2023-03-12T12:25:51.534Z,6.43
2023-03-12T12:28:28.811Z,7.05
2023-03-12T12:31:16.091Z,6.13
2023-03-12T12:33:50.569Z,6.85
2023-03-12T12:36:18.321Z,7.03
2023-03-12T12:38:51.220Z,6.45
2023-03-12T12:41:20.699Z,7.10
2023-03-12T12:43:53.350Z,5.85
2023-03-12T12:46:22.549Z,5.97
2023-03-12T12:48:49.475Z,7.07
2023-03-12T12:51:16.861Z,5.35
2023-03-12T12:53:53.949Z,5.25
2023-03-12T12:56:25.601Z,6.57
2023-03-12T12:59:03.472Z,6.38
2023-03-12T13:01:31.713Z,7.45
2023-03-12T13:04:05.485Z,5.50
2023-03-12T13:06:52.242Z,5.32
2023-03-12T13:09:21.703Z,4.65
2023-03-12T13:11:49.408Z,5.22
2023-03-12T13:14:20.378Z,4.65
2023-03-12T13:16:47.664Z,4.93
2023-03-12T13:19:14.562Z,5.47
2023-03-12T13:21:45.504Z,4.25
2023-03-12T13:24:12.459Z,5.28
2023-03-12T13:26:48.379Z,5.45
2023-03-12T13:29:24.357Z,5.43
2023-03-12T13:31:51.104Z,5.00
2023-03-12T13:34:17.839Z,4.95
2023-03-12T13:36:45.693Z,5.38
2023-03-12T13:39:15.513Z,4.97
2023-03-12T13:41:47.103Z,5.22
2023-03-12T13:44:23.356Z,5.95
2023-03-12T13:47:01.618Z,4.35
2023-03-12T13:49:36.467Z,4.15
2023-03-12T13:52:12.885Z,5.47
2023-03-12T13:54:47.669Z,5.50
2023-03-12T13:57:41.206Z,5.45
2023-03-12T14:00:28.331Z,5.75
2023-03-12T14:02:58.729Z,4.80
2023-03-12T14:05:26.373Z,5.57
2023-03-12T14:08:11.036Z,4.68
2023-03-12T14:10:49.570Z,4.72
2023-03-12T14:13:19.580Z,5.05
2023-03-12T14:15:46.371Z,4.55
2023-03-12T14:18:21.599Z,4.32
2023-03-12T14:21:02.374Z,4.70
2023-03-12T14:23:35.111Z,5.10
2023-03-12T14:26:06.759Z,4.78
2023-03-12T14:28:38.926Z,5.05
2023-03-12T14:31:09.467Z,4.18
2023-03-12T14:33:43.693Z,3.97
2023-03-12T14:36:18.548Z,4.72
2023-03-12T14:38:46.715Z,4.95
2023-03-12T14:41:19.685Z,3.97
2023-03-12T14:43:46.589Z,3.20
2023-03-12T14:46:14.973Z,4.03
2023-03-12T14:48:41.801Z,3.90
2023-03-12T14:51:08.683Z,3.67
2023-03-12T14:53:37.237Z,3.88
2023-03-12T14:56:06.961Z,3.38
2023-03-12T14:58:34.932Z,4.00
2023-03-12T15:01:03.745Z,4.93
2023-03-12T15:03:31.580Z,4.03
2023-03-12T15:05:58.593Z,3.45
2023-03-12T15:08:25.711Z,5.70
2023-03-12T15:10:57.217Z,4.18
2023-03-12T15:13:25.165Z,5.25
2023-03-12T15:15:53.378Z,4.85
2023-03-12T15:18:28.297Z,5.18
2023-03-12T15:20:57.267Z,4.95
2023-03-12T15:23:25.608Z,5.10
2023-03-12T15:26:11.319Z,5.38
2023-03-12T15:28:38.962Z,5.05
2023-03-12T15:31:11.978Z,4.80
2023-03-12T15:33:39.628Z,5.25
2023-03-12T15:36:17.819Z,4.88
2023-03-12T15:38:46.499Z,5.28
2023-03-12T15:41:20.158Z,6.40
2023-03-12T15:43:50.673Z,5.53
2023-03-12T15:46:17.887Z,6.85
2023-03-12T15:48:59.337Z,5.93
2023-03-12T15:51:33.927Z,5.95
2023-03-12T15:54:01.054Z,6.13
2023-03-12T15:56:28.320Z,5.65
2023-03-12T15:59:03.341Z,5.50
2023-03-12T16:01:30.424Z,6.32
2023-03-12T16:03:58.612Z,4.85
2023-03-12T16:06:26.462Z,5.47
2023-03-12T16:08:55.255Z,4.72
2023-03-12T16:11:27.077Z,4.43
2023-03-12T16:14:03.874Z,5.32
2023-03-12T16:16:30.677Z,4.65
2023-03-12T16:18:57.698Z,5.53
2023-03-12T16:21:24.642Z,4.68
2023-03-12T16:23:51.541Z,4.30
2023-03-12T16:26:18.640Z,4.95
2023-03-12T16:28:46.257Z,5.60
2023-03-12T16:31:14.051Z,4.97
2023-03-12T16:33:41.604Z,5.80
2023-03-12T16:36:15.883Z,5.38
2023-03-12T16:38:43.083Z,5.90
2023-03-12T16:41:11.890Z,6.75
2023-03-12T16:43:38.732Z,6.15
2023-03-12T16:46:08.357Z,5.47
2023-03-12T16:48:35.596Z,5.78
2023-03-12T16:51:02.418Z,6.35
2023-03-12T16:53:29.278Z,5.82
2023-03-12T16:55:56.853Z,7.25
2023-03-12T16:58:24.631Z,9.73
2023-03-12T17:00:52.848Z,8.13
2023-03-12T17:03:35.780Z,6.90
2023-03-12T17:06:03.714Z,7.32
2023-03-12T17:08:30.828Z,6.82
2023-03-12T17:10:57.788Z,7.20
2023-03-12T17:13:26.299Z,8.93
2023-03-12T17:15:53.447Z,7.20
2023-03-12T17:18:20.747Z,7.03
2023-03-12T17:20:49.151Z,7.55
2023-03-12T17:23:15.917Z,7.32
2023-03-12T17:25:43.329Z,7.85
2023-03-12T17:28:10.943Z,7.55
2023-03-12T17:30:37.752Z,6.50
2023-03-12T17:33:06.739Z,7.13
2023-03-12T17:35:33.980Z,8.20
2023-03-12T17:38:00.837Z,8.82
2023-03-12T17:40:27.683Z,7.55
2023-03-12T17:42:54.782Z,8.32
2023-03-12T17:45:21.871Z,7.78
2023-03-12T17:47:48.667Z,6.97
2023-03-12T17:50:15.955Z,7.18
2023-03-12T17:52:42.741Z,9.07
2023-03-12T17:55:11.628Z,8.10
2023-03-12T17:57:39.221Z,9.40
2023-03-12T18:00:13.263Z,8.38
2023-03-12T18:02:40.962Z,9.52
2023-03-12T18:05:08.918Z,9.68
2023-03-12T18:07:36.724Z,6.68
2023-03-12T18:10:04.526Z,7.50
2023-03-12T18:12:32.736Z,9.55
2023-03-12T18:14:59.728Z,7.57
2023-03-12T18:17:26.757Z,8.57
2023-03-12T18:19:53.594Z,8.30
2023-03-12T18:22:20.367Z,8.15
2023-03-12T18:24:47.807Z,8.32
2023-03-12T18:27:14.743Z,8.23
2023-03-12T18:29:41.817Z,7.57
2023-03-12T18:32:08.843Z,6.82
2023-03-12T18:34:36.171Z,6.35
2023-03-12T18:37:03.106Z,6.32
2023-03-12T18:39:29.946Z,7.18
2023-03-12T18:41:56.777Z,7.97
2023-03-12T18:44:23.627Z,5.88
2023-03-12T18:46:51.828Z,6.00
2023-03-12T18:49:18.818Z,6.40
2023-03-12T18:51:45.979Z,5.60
2023-03-12T18:54:12.851Z,5.28
2023-03-12T18:56:41.053Z,5.53
2023-03-12T18:59:09.833Z,5.78
2023-03-12T19:01:37.781Z,6.03
2023-03-12T19:04:04.706Z,5.38
2023-03-12T19:06:44.301Z,5.38
2023-03-12T19:09:16.990Z,5.25
2023-03-12T19:11:45.955Z,4.88
2023-03-12T19:14:12.706Z,4.60
2023-03-12T19:16:39.918Z,5.20
2023-03-12T19:19:06.727Z,4.68
2023-03-12T19:21:33.523Z,4.63
2023-03-12T19:24:00.712Z,5.25
2023-03-12T19:26:27.553Z,5.47
2023-03-12T19:28:54.430Z,4.88
2023-03-12T19:31:21.265Z,5.18
2023-03-12T19:33:48.367Z,4.85
2023-03-12T19:36:15.176Z,6.15
2023-03-12T19:38:42.018Z,4.88
2023-03-12T19:41:09.345Z,5.18
2023-03-12T19:43:37.177Z,3.72
2023-03-12T19:46:04.876Z,4.65
2023-03-12T19:48:31.874Z,4.43
2023-03-12T19:51:04.273Z,4.75
2023-03-12T19:53:31.388Z,4.05
2023-03-12T19:55:58.206Z,4.10
2023-03-12T19:58:25.101Z,4.57
2023-03-12T20:00:52.199Z,4.78
2023-03-12T20:03:20.754Z,4.63
2023-03-12T20:05:47.626Z,4.03
2023-03-12T20:08:14.716Z,4.32
2023-03-12T20:10:41.531Z,4.22
2023-03-12T20:13:12.929Z,4.65
2023-03-12T20:15:40.635Z,5.43
2023-03-12T20:18:07.545Z,4.38
2023-03-12T20:20:34.305Z,4.70
2023-03-12T20:23:01.061Z,4.20
2023-03-12T20:25:27.818Z,4.53
2023-03-12T20:27:54.790Z,4.57
2023-03-12T20:30:21.589Z,5.22
2023-03-12T20:32:48.420Z,4.35
2023-03-12T20:35:15.235Z,4.80
2023-03-12T20:37:41.991Z,4.90
2023-03-12T20:40:09.023Z,4.65
2023-03-12T20:42:36.305Z,6.22
2023-03-12T20:45:03.212Z,5.60
2023-03-12T20:47:30.231Z,5.82
2023-03-12T20:49:57.028Z,4.68
2023-03-12T20:52:25.062Z,4.93
2023-03-12T20:54:51.902Z,4.45
2023-03-12T20:57:18.689Z,6.15
2023-03-12T20:59:45.435Z,5.13
2023-03-12T21:02:12.971Z,4.78
2023-03-12T21:04:39.916Z,5.03
2023-03-12T21:07:06.656Z,6.10
2023-03-12T21:09:33.543Z,6.15
2023-03-12T21:12:00.328Z,5.55
2023-03-12T21:14:27.492Z,6.97
2023-03-12T21:16:54.454Z,6.55
2023-03-12T21:19:21.365Z,5.68
2023-03-12T21:21:48.149Z,6.53
2023-03-12T21:24:14.975Z,5.40
2023-03-12T21:26:41.923Z,6.00
2023-03-12T21:29:09.407Z,5.70
2023-03-12T21:31:36.478Z,5.65
2023-03-12T21:34:03.293Z,6.30
2023-03-12T21:36:30.248Z,5.63
2023-03-12T21:38:56.971Z,6.38
2023-03-12T21:41:23.849Z,5.97
2023-03-12T21:43:50.747Z,6.47
2023-03-12T21:46:19.359Z,5.90
2023-03-12T21:48:47.260Z,6.25
2023-03-12T21:51:15.126Z,6.25
2023-03-12T21:53:42.329Z,6.82
2023-03-12T21:56:09.615Z,6.22
2023-03-12T21:58:36.532Z,5.28
2023-03-12T22:01:03.290Z,6.30
2023-03-12T22:03:30.079Z,5.53
2023-03-12T22:05:56.967Z,4.88
2023-03-12T22:08:23.800Z,6.35
2023-03-12T22:10:50.697Z,5.72
2023-03-12T22:13:17.720Z,5.30
2023-03-12T22:15:52.780Z,6.05
2023-03-12T22:18:19.763Z,5.00
2023-03-12T22:20:56.893Z,7.47
2023-03-12T22:23:24.555Z,5.30
2023-03-12T22:25:51.395Z,5.95
2023-03-12T22:28:18.391Z,6.15
2023-03-12T22:30:46.260Z,5.53
2023-03-12T22:33:13.327Z,6.15
2023-03-12T22:35:46.428Z,6.53
2023-03-12T22:38:13.477Z,5.78
2023-03-12T22:40:40.781Z,6.78
2023-03-12T22:43:07.759Z,6.72
2023-03-12T22:45:35.186Z,5.95
2023-03-12T22:48:01.960Z,5.57
2023-03-12T22:50:28.831Z,6.25
2023-03-12T22:52:55.705Z,5.10
2023-03-12T22:55:22.738Z,5.00
2023-03-12T22:57:49.585Z,6.05
2023-03-12T23:00:18.382Z,5.53
2023-03-12T23:02:45.200Z,5.25
2023-03-12T23:05:12.104Z,4.43
2023-03-12T23:07:39.211Z,5.35
2023-03-12T23:10:07.147Z,5.25
2023-03-12T23:12:33.895Z,5.20
2023-03-12T23:15:00.763Z,6.15
2023-03-12T23:17:30.363Z,6.03
2023-03-12T23:19:59.432Z,5.50
2023-03-12T23:22:26.254Z,5.95
2023-03-12T23:24:53.301Z,5.03
2023-03-12T23:27:20.040Z,5.05
2023-03-12T23:29:47.013Z,4.65
2023-03-12T23:32:13.921Z,4.32
2023-03-12T23:34:41.001Z,4.43
2023-03-12T23:37:07.849Z,4.40
2023-03-12T23:39:44.954Z,4.75
2023-03-12T23:42:11.946Z,4.35
2023-03-12T23:44:39.155Z,4.88
2023-03-12T23:47:06.410Z,4.22
2023-03-12T23:49:33.406Z,4.53
2023-03-12T23:52:00.429Z,4.32
2023-03-12T23:54:27.206Z,5.03
2023-03-12T23:56:56.177Z,3.47
2023-03-12T23:59:23.205Z,4.63
